sensor_id;sensor_type;location;lat;lon;timestamp;pressure;altitude;pressure_sealevel;temperature;humidity
2549;BME280;1284;53.520;10.248;2023-12-20T00:00:58;100229.50;;;8.84;100.00
2549;BME280;1284;53.520;10.248;2023-12-20T00:03:23;100232.72;;;8.93;100.00
2549;BME280;1284;53.520;10.248;2023-12-20T00:05:49;100231.16;;;8.92;100.00
2549;BME280;1284;53.520;10.248;2023-12-20T00:08:15;100227.78;;;8.95;100.00
2549;BME280;1284;53.520;10.248;2023-12-20T00:10:40;100228.78;;;8.87;100.00
2549;BME280;1284;53.520;10.248;2023-12-20T00:13:06;100219.56;;;8.88;100.00
2549;BME280;1284;53.520;10.248;2023-12-20T00:15:33;100225.78;;;8.73;100.00
2549;BME280;1284;53.520;10.248;2023-12-20T00:17:59;100224.25;;;8.72;100.00
2549;BME280;1284;53.520;10.248;2023-12-20T00:20:25;100227.44;;;8.78;100.00
2549;BME280;1284;53.520;10.248;2023-12-20T00:22:50;100235.97;;;8.83;100.00
2549;BME280;1284;53.520;10.248;2023-12-20T00:25:15;100222.63;;;8.68;99.94
2549;BME280;1284;53.520;10.248;2023-12-20T00:27:41;100223.03;;;8.70;100.00
2549;BME280;1284;53.520;10.248;2023-12-20T00:30:07;100224.88;;;8.66;100.00
2549;BME280;1284;53.520;10.248;2023-12-20T00:32:33;100220.91;;;8.60;100.00
2549;BME280;1284;53.520;10.248;2023-12-20T00:34:58;100217.41;;;8.75;99.86
2549;BME280;1284;53.520;10.248;2023-12-20T00:37:23;100214.91;;;8.66;100.00
2549;BME280;1284;53.520;10.248;2023-12-20T00:39:49;100216.19;;;8.53;99.94
2549;BME280;1284;53.520;10.248;2023-12-20T00:42:14;100213.78;;;8.67;100.00
2549;BME280;1284;53.520;10.248;2023-12-20T00:44:40;100206.44;;;8.64;100.00
2549;BME280;1284;53.520;10.248;2023-12-20T00:47:05;100216.56;;;8.71;99.15
2549;BME280;1284;53.520;10.248;2023-12-20T00:49:31;100201.25;;;8.56;100.00
2549;BME280;1284;53.520;10.248;2023-12-20T00:51:56;100205.44;;;8.53;100.00
2549;BME280;1284;53.520;10.248;2023-12-20T00:54:22;100202.63;;;8.65;100.00
2549;BME280;1284;53.520;10.248;2023-12-20T00:56:47;100189.97;;;8.66;100.00
2549;BME280;1284;53.520;10.248;2023-12-20T00:59:12;100187.78;;;8.71;99.24
2549;BME280;1284;53.520;10.248;2023-12-20T01:01:38;100192.41;;;8.71;99.56
2549;BME280;1284;53.520;10.248;2023-12-20T01:04:04;100192.09;;;8.76;99.80
2549;BME280;1284;53.520;10.248;2023-12-20T01:06:29;100183.06;;;8.84;99.53
2549;BME280;1284;53.520;10.248;2023-12-20T01:08:55;100200.28;;;8.64;99.31
2549;BME280;1284;53.520;10.248;2023-12-20T01:11:20;100177.97;;;8.79;100.00
2549;BME280;1284;53.520;10.248;2023-12-20T01:13:46;100189.41;;;8.76;99.74
2549;BME280;1284;53.520;10.248;2023-12-20T01:16:11;100193.75;;;8.80;100.00
2549;BME280;1284;53.520;10.248;2023-12-20T01:18:37;100189.56;;;8.83;100.00
2549;BME280;1284;53.520;10.248;2023-12-20T01:21:04;100195.28;;;8.81;99.76
2549;BME280;1284;53.520;10.248;2023-12-20T01:23:30;100189.50;;;8.79;100.00
2549;BME280;1284;53.520;10.248;2023-12-20T01:25:55;100187.66;;;8.83;100.00
2549;BME280;1284;53.520;10.248;2023-12-20T01:28:21;100174.22;;;8.83;100.00
2549;BME280;1284;53.520;10.248;2023-12-20T01:30:46;100182.75;;;8.89;99.25
2549;BME280;1284;53.520;10.248;2023-12-20T01:33:12;100174.72;;;8.89;98.95
2549;BME280;1284;53.520;10.248;2023-12-20T01:35:37;100179.97;;;8.82;98.82
2549;BME280;1284;53.520;10.248;2023-12-20T01:38:03;100175.03;;;8.65;99.21
2549;BME280;1284;53.520;10.248;2023-12-20T01:40:28;100181.31;;;8.72;99.43
2549;BME280;1284;53.520;10.248;2023-12-20T01:43:01;100183.41;;;8.63;99.21
2549;BME280;1284;53.520;10.248;2023-12-20T01:45:27;100178.97;;;8.71;99.14
2549;BME280;1284;53.520;10.248;2023-12-20T01:47:54;100179.91;;;8.59;99.24
2549;BME280;1284;53.520;10.248;2023-12-20T01:50:20;100175.28;;;8.60;98.85
2549;BME280;1284;53.520;10.248;2023-12-20T01:52:46;100159.41;;;8.51;99.05
2549;BME280;1284;53.520;10.248;2023-12-20T01:55:13;100165.69;;;8.59;98.59
2549;BME280;1284;53.520;10.248;2023-12-20T01:57:43;100164.28;;;8.65;97.80
2549;BME280;1284;53.520;10.248;2023-12-20T02:00:11;100164.06;;;8.54;98.41
2549;BME280;1284;53.520;10.248;2023-12-20T02:02:39;100157.00;;;8.65;98.01
2549;BME280;1284;53.520;10.248;2023-12-20T02:05:06;100151.78;;;8.53;98.24
2549;BME280;1284;53.520;10.248;2023-12-20T02:07:31;100149.78;;;8.50;98.30
2549;BME280;1284;53.520;10.248;2023-12-20T02:09:57;100158.00;;;8.57;98.38
2549;BME280;1284;53.520;10.248;2023-12-20T02:12:22;100155.44;;;8.64;98.71
2549;BME280;1284;53.520;10.248;2023-12-20T02:14:48;100155.81;;;8.63;98.43
2549;BME280;1284;53.520;10.248;2023-12-20T02:17:15;100154.59;;;8.60;98.36
2549;BME280;1284;53.520;10.248;2023-12-20T02:19:41;100142.75;;;8.61;97.97
2549;BME280;1284;53.520;10.248;2023-12-20T02:22:10;100138.00;;;8.55;98.52
2549;BME280;1284;53.520;10.248;2023-12-20T02:24:36;100132.56;;;8.32;99.00
2549;BME280;1284;53.520;10.248;2023-12-20T02:27:02;100127.34;;;8.39;99.19
2549;BME280;1284;53.520;10.248;2023-12-20T02:29:28;100123.81;;;8.35;99.58
2549;BME280;1284;53.520;10.248;2023-12-20T02:31:53;100120.63;;;8.30;99.25
2549;BME280;1284;53.520;10.248;2023-12-20T02:34:19;100119.00;;;8.44;98.97
2549;BME280;1284;53.520;10.248;2023-12-20T02:36:44;100119.00;;;8.44;98.28
2549;BME280;1284;53.520;10.248;2023-12-20T02:39:10;100121.00;;;8.47;98.37
2549;BME280;1284;53.520;10.248;2023-12-20T02:41:35;100115.38;;;8.17;99.42
2549;BME280;1284;53.520;10.248;2023-12-20T02:44:01;100128.13;;;8.40;99.32
2549;BME280;1284;53.520;10.248;2023-12-20T02:46:27;100130.09;;;8.43;99.08
2549;BME280;1284;53.520;10.248;2023-12-20T02:48:52;100122.09;;;8.46;98.99
2549;BME280;1284;53.520;10.248;2023-12-20T02:51:18;100116.75;;;8.46;99.27
2549;BME280;1284;53.520;10.248;2023-12-20T02:53:44;100114.66;;;8.55;99.17
2549;BME280;1284;53.520;10.248;2023-12-20T02:56:10;100110.31;;;8.51;99.01
2549;BME280;1284;53.520;10.248;2023-12-20T02:58:35;100106.44;;;8.48;99.53
2549;BME280;1284;53.520;10.248;2023-12-20T03:01:01;100100.44;;;8.55;98.76
2549;BME280;1284;53.520;10.248;2023-12-20T03:03:26;100101.50;;;8.50;99.25
2549;BME280;1284;53.520;10.248;2023-12-20T03:05:52;100102.97;;;8.67;98.69
2549;BME280;1284;53.520;10.248;2023-12-20T03:08:17;100091.34;;;8.59;97.92
2549;BME280;1284;53.520;10.248;2023-12-20T03:10:42;100091.75;;;8.61;98.42
2549;BME280;1284;53.520;10.248;2023-12-20T03:13:08;100093.41;;;8.69;97.61
2549;BME280;1284;53.520;10.248;2023-12-20T03:15:34;100081.34;;;8.60;97.71
2549;BME280;1284;53.520;10.248;2023-12-20T03:18:00;100084.41;;;8.58;97.84
2549;BME280;1284;53.520;10.248;2023-12-20T03:20:25;100078.25;;;8.58;97.79
2549;BME280;1284;53.520;10.248;2023-12-20T03:22:51;100073.66;;;8.58;98.08
2549;BME280;1284;53.520;10.248;2023-12-20T03:25:17;100069.88;;;8.40;98.28
2549;BME280;1284;53.520;10.248;2023-12-20T03:27:42;100061.34;;;8.35;99.24
2549;BME280;1284;53.520;10.248;2023-12-20T03:30:08;100061.47;;;8.42;99.08
2549;BME280;1284;53.520;10.248;2023-12-20T03:32:33;100064.00;;;8.35;99.14
2549;BME280;1284;53.520;10.248;2023-12-20T03:34:59;100065.78;;;8.27;98.79
2549;BME280;1284;53.520;10.248;2023-12-20T03:37:24;100060.09;;;8.13;100.00
2549;BME280;1284;53.520;10.248;2023-12-20T03:39:50;100060.00;;;8.25;99.51
2549;BME280;1284;53.520;10.248;2023-12-20T03:42:15;100066.22;;;8.29;99.06
2549;BME280;1284;53.520;10.248;2023-12-20T03:44:41;100057.16;;;8.37;99.14
2549;BME280;1284;53.520;10.248;2023-12-20T03:47:06;100060.88;;;8.52;98.32
2549;BME280;1284;53.520;10.248;2023-12-20T03:49:32;100064.66;;;8.47;97.68
2549;BME280;1284;53.520;10.248;2023-12-20T03:51:57;100053.28;;;8.35;98.23
2549;BME280;1284;53.520;10.248;2023-12-20T03:54:23;100045.91;;;8.28;99.21
2549;BME280;1284;53.520;10.248;2023-12-20T03:56:49;100046.09;;;8.39;99.10
2549;BME280;1284;53.520;10.248;2023-12-20T03:59:14;100042.63;;;8.38;98.09
2549;BME280;1284;53.520;10.248;2023-12-20T04:01:43;100041.19;;;8.44;97.97
2549;BME280;1284;53.520;10.248;2023-12-20T04:04:10;100035.50;;;8.27;98.94
2549;BME280;1284;53.520;10.248;2023-12-20T04:06:35;100030.41;;;8.41;98.65
2549;BME280;1284;53.520;10.248;2023-12-20T04:09:01;100023.91;;;8.23;98.37
2549;BME280;1284;53.520;10.248;2023-12-20T04:11:26;100027.19;;;8.32;99.31
2549;BME280;1284;53.520;10.248;2023-12-20T04:13:52;100033.88;;;8.41;98.10
2549;BME280;1284;53.520;10.248;2023-12-20T04:16:18;100021.78;;;8.51;98.02
2549;BME280;1284;53.520;10.248;2023-12-20T04:18:43;100017.34;;;8.39;98.47
2549;BME280;1284;53.520;10.248;2023-12-20T04:21:08;100026.25;;;8.43;98.60
2549;BME280;1284;53.520;10.248;2023-12-20T04:23:34;100015.31;;;8.33;98.98
2549;BME280;1284;53.520;10.248;2023-12-20T04:25:59;100013.00;;;8.54;98.27
2549;BME280;1284;53.520;10.248;2023-12-20T04:28:25;100007.75;;;8.38;98.66
2549;BME280;1284;53.520;10.248;2023-12-20T04:30:50;100016.22;;;8.40;99.31
2549;BME280;1284;53.520;10.248;2023-12-20T04:33:16;100012.25;;;8.53;98.38
2549;BME280;1284;53.520;10.248;2023-12-20T04:35:41;100000.47;;;8.39;99.00
2549;BME280;1284;53.520;10.248;2023-12-20T04:38:08;99996.47;;;8.29;100.00
2549;BME280;1284;53.520;10.248;2023-12-20T04:40:34;99998.06;;;8.53;98.54
2549;BME280;1284;53.520;10.248;2023-12-20T04:42:59;99986.97;;;8.54;98.79
2549;BME280;1284;53.520;10.248;2023-12-20T04:45:25;99987.13;;;8.42;98.67
2549;BME280;1284;53.520;10.248;2023-12-20T04:47:51;99982.91;;;8.64;97.65
2549;BME280;1284;53.520;10.248;2023-12-20T04:50:16;99972.31;;;8.71;96.68
2549;BME280;1284;53.520;10.248;2023-12-20T04:52:42;99975.56;;;8.38;98.89
2549;BME280;1284;53.520;10.248;2023-12-20T04:55:08;99967.81;;;8.56;98.52
2549;BME280;1284;53.520;10.248;2023-12-20T04:57:34;99962.38;;;8.52;98.12
2549;BME280;1284;53.520;10.248;2023-12-20T05:00:00;99958.88;;;8.48;98.52
2549;BME280;1284;53.520;10.248;2023-12-20T05:02:25;99971.63;;;8.55;97.74
2549;BME280;1284;53.520;10.248;2023-12-20T05:04:51;99958.44;;;8.46;98.63
2549;BME280;1284;53.520;10.248;2023-12-20T05:07:16;99954.41;;;8.56;98.00
2549;BME280;1284;53.520;10.248;2023-12-20T05:09:41;99974.31;;;8.32;98.54
2549;BME280;1284;53.520;10.248;2023-12-20T05:12:07;99965.25;;;8.40;99.17
2549;BME280;1284;53.520;10.248;2023-12-20T05:14:33;99962.97;;;8.42;100.00
2549;BME280;1284;53.520;10.248;2023-12-20T05:16:58;99966.88;;;8.45;99.05
2549;BME280;1284;53.520;10.248;2023-12-20T05:19:24;99967.44;;;8.35;99.77
2549;BME280;1284;53.520;10.248;2023-12-20T05:21:50;99960.66;;;8.41;99.87
2549;BME280;1284;53.520;10.248;2023-12-20T05:24:16;99944.63;;;8.44;99.68
2549;BME280;1284;53.520;10.248;2023-12-20T05:26:41;99945.50;;;8.52;98.91
2549;BME280;1284;53.520;10.248;2023-12-20T05:29:06;99954.75;;;8.54;98.40
2549;BME280;1284;53.520;10.248;2023-12-20T05:31:32;99951.06;;;8.62;98.40
2549;BME280;1284;53.520;10.248;2023-12-20T05:33:57;99960.78;;;8.70;97.69
2549;BME280;1284;53.520;10.248;2023-12-20T05:36:23;99949.59;;;8.65;97.14
2549;BME280;1284;53.520;10.248;2023-12-20T05:38:48;99958.75;;;8.64;98.21
2549;BME280;1284;53.520;10.248;2023-12-20T05:41:15;99960.81;;;8.48;99.20
2549;BME280;1284;53.520;10.248;2023-12-20T05:43:40;99950.53;;;8.53;99.28
2549;BME280;1284;53.520;10.248;2023-12-20T05:46:05;99956.53;;;8.69;98.44
2549;BME280;1284;53.520;10.248;2023-12-20T05:48:31;99958.53;;;8.72;97.38
2549;BME280;1284;53.520;10.248;2023-12-20T05:50:57;99948.91;;;8.71;97.95
2549;BME280;1284;53.520;10.248;2023-12-20T05:53:22;99945.50;;;8.74;97.25
2549;BME280;1284;53.520;10.248;2023-12-20T05:55:48;99941.06;;;8.59;98.17
2549;BME280;1284;53.520;10.248;2023-12-20T05:58:13;99948.81;;;8.64;98.04
2549;BME280;1284;53.520;10.248;2023-12-20T06:00:39;99943.56;;;8.49;99.25
2549;BME280;1284;53.520;10.248;2023-12-20T06:03:04;99934.72;;;8.48;99.33
2549;BME280;1284;53.520;10.248;2023-12-20T06:05:30;99941.47;;;8.61;99.22
2549;BME280;1284;53.520;10.248;2023-12-20T06:07:56;99944.81;;;8.55;99.36
2549;BME280;1284;53.520;10.248;2023-12-20T06:10:26;99937.97;;;8.57;100.00
2549;BME280;1284;53.520;10.248;2023-12-20T06:12:53;99936.09;;;8.39;99.95
2549;BME280;1284;53.520;10.248;2023-12-20T06:15:19;99932.19;;;8.55;100.00
2549;BME280;1284;53.520;10.248;2023-12-20T06:17:45;99919.66;;;8.63;99.57
2549;BME280;1284;53.520;10.248;2023-12-20T06:20:12;99942.81;;;8.52;100.00
2549;BME280;1284;53.520;10.248;2023-12-20T06:22:38;99928.66;;;8.51;100.00
2549;BME280;1284;53.520;10.248;2023-12-20T06:25:04;99929.13;;;8.34;100.00
2549;BME280;1284;53.520;10.248;2023-12-20T06:27:30;99921.03;;;8.53;99.22
2549;BME280;1284;53.520;10.248;2023-12-20T06:29:57;99917.31;;;8.61;99.30
2549;BME280;1284;53.520;10.248;2023-12-20T06:32:23;99912.28;;;8.60;98.94
2549;BME280;1284;53.520;10.248;2023-12-20T06:34:49;99915.25;;;8.51;99.26
2549;BME280;1284;53.520;10.248;2023-12-20T06:37:15;99912.38;;;8.41;99.56
2549;BME280;1284;53.520;10.248;2023-12-20T06:39:40;99905.63;;;8.50;99.22
2549;BME280;1284;53.520;10.248;2023-12-20T06:42:06;99904.56;;;8.55;98.64
2549;BME280;1284;53.520;10.248;2023-12-20T06:44:31;99901.63;;;8.41;99.34
2549;BME280;1284;53.520;10.248;2023-12-20T06:46:57;99902.72;;;8.59;98.79
2549;BME280;1284;53.520;10.248;2023-12-20T06:49:23;99898.31;;;8.47;97.90
2549;BME280;1284;53.520;10.248;2023-12-20T06:51:48;99892.56;;;8.49;98.66
2549;BME280;1284;53.520;10.248;2023-12-20T06:54:14;99891.94;;;8.55;98.54
2549;BME280;1284;53.520;10.248;2023-12-20T06:56:39;99891.16;;;8.32;98.71
2549;BME280;1284;53.520;10.248;2023-12-20T06:59:06;99885.91;;;8.39;98.71
2549;BME280;1284;53.520;10.248;2023-12-20T07:01:32;99890.63;;;8.46;99.25
2549;BME280;1284;53.520;10.248;2023-12-20T07:03:57;99876.84;;;8.25;99.42
2549;BME280;1284;53.520;10.248;2023-12-20T07:06:22;99878.59;;;8.36;100.00
2549;BME280;1284;53.520;10.248;2023-12-20T07:08:49;99875.06;;;8.32;99.43
2549;BME280;1284;53.520;10.248;2023-12-20T07:11:14;99871.44;;;8.44;99.47
2549;BME280;1284;53.520;10.248;2023-12-20T07:13:39;99868.28;;;8.64;98.80
2549;BME280;1284;53.520;10.248;2023-12-20T07:16:05;99864.38;;;8.58;98.67
2549;BME280;1284;53.520;10.248;2023-12-20T07:18:30;99872.31;;;8.51;97.66
2549;BME280;1284;53.520;10.248;2023-12-20T07:20:56;99871.94;;;8.53;98.75
2549;BME280;1284;53.520;10.248;2023-12-20T07:23:21;99875.41;;;8.31;100.00
2549;BME280;1284;53.520;10.248;2023-12-20T07:25:47;99879.63;;;8.54;98.48
2549;BME280;1284;53.520;10.248;2023-12-20T07:28:13;99889.53;;;8.50;98.07
2549;BME280;1284;53.520;10.248;2023-12-20T07:30:38;99886.72;;;8.66;97.21
2549;BME280;1284;53.520;10.248;2023-12-20T07:33:04;99878.88;;;8.80;96.85
2549;BME280;1284;53.520;10.248;2023-12-20T07:35:30;99873.75;;;8.71;97.43
2549;BME280;1284;53.520;10.248;2023-12-20T07:37:57;99874.38;;;8.61;97.88
2549;BME280;1284;53.520;10.248;2023-12-20T07:40:23;99868.66;;;8.40;98.84
2549;BME280;1284;53.520;10.248;2023-12-20T07:42:49;99861.78;;;8.65;98.88
2549;BME280;1284;53.520;10.248;2023-12-20T07:45:15;99864.38;;;8.58;98.47
2549;BME280;1284;53.520;10.248;2023-12-20T07:47:40;99858.13;;;8.51;98.13
2549;BME280;1284;53.520;10.248;2023-12-20T07:50:06;99859.09;;;8.65;97.74
2549;BME280;1284;53.520;10.248;2023-12-20T07:52:32;99863.69;;;8.65;97.92
2549;BME280;1284;53.520;10.248;2023-12-20T07:54:57;99857.66;;;8.71;97.38
2549;BME280;1284;53.520;10.248;2023-12-20T07:57:23;99871.91;;;8.49;98.13
2549;BME280;1284;53.520;10.248;2023-12-20T07:59:49;99855.59;;;8.61;98.49
2549;BME280;1284;53.520;10.248;2023-12-20T08:02:14;99861.34;;;8.63;97.96
2549;BME280;1284;53.520;10.248;2023-12-20T08:04:40;99849.84;;;8.89;96.50
2549;BME280;1284;53.520;10.248;2023-12-20T08:07:06;99849.72;;;8.78;97.21
2549;BME280;1284;53.520;10.248;2023-12-20T08:09:32;99859.16;;;8.69;98.19
2549;BME280;1284;53.520;10.248;2023-12-20T08:11:59;99849.75;;;8.82;96.87
2549;BME280;1284;53.520;10.248;2023-12-20T08:14:25;99850.13;;;8.80;97.58
2549;BME280;1284;53.520;10.248;2023-12-20T08:16:50;99847.94;;;8.89;96.56
2549;BME280;1284;53.520;10.248;2023-12-20T08:19:16;99850.13;;;8.80;96.92
2549;BME280;1284;53.520;10.248;2023-12-20T08:21:42;99832.41;;;8.76;98.06
2549;BME280;1284;53.520;10.248;2023-12-20T08:24:08;99833.75;;;8.89;96.57
2549;BME280;1284;53.520;10.248;2023-12-20T08:26:33;99810.44;;;8.96;96.31
2549;BME280;1284;53.520;10.248;2023-12-20T08:28:58;99812.00;;;8.97;95.42
2549;BME280;1284;53.520;10.248;2023-12-20T08:31:24;99817.59;;;8.85;97.20
2549;BME280;1284;53.520;10.248;2023-12-20T08:33:50;99808.16;;;8.98;96.05
2549;BME280;1284;53.520;10.248;2023-12-20T08:36:15;99811.72;;;8.76;97.17
2549;BME280;1284;53.520;10.248;2023-12-20T08:38:43;99810.91;;;8.72;96.67
2549;BME280;1284;53.520;10.248;2023-12-20T08:41:08;99800.16;;;8.72;97.18
2549;BME280;1284;53.520;10.248;2023-12-20T08:43:34;99798.47;;;8.90;96.59
2549;BME280;1284;53.520;10.248;2023-12-20T08:46:00;99790.41;;;8.90;97.49
2549;BME280;1284;53.520;10.248;2023-12-20T08:48:26;99782.50;;;9.01;96.33
2549;BME280;1284;53.520;10.248;2023-12-20T08:50:51;99790.38;;;8.57;97.56
2549;BME280;1284;53.520;10.248;2023-12-20T08:53:18;99798.31;;;8.76;98.60
2549;BME280;1284;53.520;10.248;2023-12-20T08:55:44;99779.00;;;8.97;97.30
2549;BME280;1284;53.520;10.248;2023-12-20T08:58:10;99781.06;;;9.07;95.95
2549;BME280;1284;53.520;10.248;2023-12-20T09:00:35;99776.97;;;9.20;95.17
2549;BME280;1284;53.520;10.248;2023-12-20T09:03:01;99783.97;;;9.28;95.19
2549;BME280;1284;53.520;10.248;2023-12-20T09:05:27;99777.41;;;8.92;97.04
2549;BME280;1284;53.520;10.248;2023-12-20T09:07:53;99774.19;;;9.09;96.90
2549;BME280;1284;53.520;10.248;2023-12-20T09:10:19;99768.31;;;9.00;97.35
2549;BME280;1284;53.520;10.248;2023-12-20T09:12:49;99775.97;;;9.02;97.80
2549;BME280;1284;53.520;10.248;2023-12-20T09:15:14;99784.84;;;9.06;97.05
2549;BME280;1284;53.520;10.248;2023-12-20T09:17:40;99783.78;;;9.10;96.91
2549;BME280;1284;53.520;10.248;2023-12-20T09:20:07;99767.41;;;8.89;98.50
2549;BME280;1284;53.520;10.248;2023-12-20T09:22:33;99759.81;;;8.95;99.31
2549;BME280;1284;53.520;10.248;2023-12-20T09:24:59;99772.09;;;8.96;98.10
2549;BME280;1284;53.520;10.248;2023-12-20T09:27:25;99765.53;;;8.93;98.67
2549;BME280;1284;53.520;10.248;2023-12-20T09:29:51;99786.53;;;8.58;100.00
2549;BME280;1284;53.520;10.248;2023-12-20T09:32:16;99805.78;;;8.64;100.00
2549;BME280;1284;53.520;10.248;2023-12-20T09:34:42;99799.38;;;8.72;100.00
2549;BME280;1284;53.520;10.248;2023-12-20T09:37:07;99799.06;;;8.77;99.24
2549;BME280;1284;53.520;10.248;2023-12-20T09:39:33;99797.06;;;8.70;100.00
2549;BME280;1284;53.520;10.248;2023-12-20T09:42:05;99791.69;;;7.95;100.00
2549;BME280;1284;53.520;10.248;2023-12-20T09:44:31;99793.84;;;8.09;100.00
2549;BME280;1284;53.520;10.248;2023-12-20T09:46:59;99791.72;;;8.21;100.00
2549;BME280;1284;53.520;10.248;2023-12-20T09:49:27;99777.91;;;8.19;100.00
2549;BME280;1284;53.520;10.248;2023-12-20T09:51:53;99791.84;;;8.29;100.00
2549;BME280;1284;53.520;10.248;2023-12-20T09:54:20;99815.50;;;8.46;100.00
2549;BME280;1284;53.520;10.248;2023-12-20T09:56:46;99804.66;;;8.39;100.00
2549;BME280;1284;53.520;10.248;2023-12-20T09:59:12;99798.63;;;8.45;100.00
2549;BME280;1284;53.520;10.248;2023-12-20T10:01:41;99796.66;;;8.68;100.00
2549;BME280;1284;53.520;10.248;2023-12-20T10:04:08;99789.38;;;8.43;100.00
2549;BME280;1284;53.520;10.248;2023-12-20T10:06:36;99794.91;;;8.53;100.00
2549;BME280;1284;53.520;10.248;2023-12-20T10:09:02;99784.28;;;8.11;100.00
2549;BME280;1284;53.520;10.248;2023-12-20T10:11:28;99784.59;;;8.06;100.00
2549;BME280;1284;53.520;10.248;2023-12-20T10:13:59;99781.00;;;8.21;100.00
2549;BME280;1284;53.520;10.248;2023-12-20T10:16:26;99780.72;;;8.04;100.00
2549;BME280;1284;53.520;10.248;2023-12-20T10:18:55;99766.25;;;8.08;100.00
2549;BME280;1284;53.520;10.248;2023-12-20T10:21:25;99766.19;;;8.28;100.00
2549;BME280;1284;53.520;10.248;2023-12-20T10:23:54;99755.63;;;8.15;98.81
2549;BME280;1284;53.520;10.248;2023-12-20T10:26:24;99781.78;;;8.22;98.40
2549;BME280;1284;53.520;10.248;2023-12-20T10:28:50;99807.00;;;7.95;98.92
2549;BME280;1284;53.520;10.248;2023-12-20T10:31:30;99811.28;;;7.77;99.94
2549;BME280;1284;53.520;10.248;2023-12-20T10:33:59;99802.91;;;8.01;99.80
2549;BME280;1284;53.520;10.248;2023-12-20T10:36:26;99806.97;;;8.17;97.36
2549;BME280;1284;53.520;10.248;2023-12-20T10:38:53;99804.66;;;8.16;97.39
2549;BME280;1284;53.520;10.248;2023-12-20T10:43:51;99793.34;;;7.81;98.15
2549;BME280;1284;53.520;10.248;2023-12-20T10:46:19;99767.13;;;8.16;98.08
2549;BME280;1284;53.520;10.248;2023-12-20T10:48:45;99773.19;;;8.13;96.49
2549;BME280;1284;53.520;10.248;2023-12-20T10:51:11;99775.06;;;8.32;95.67
2549;BME280;1284;53.520;10.248;2023-12-20T10:53:39;99773.91;;;8.10;97.33
2549;BME280;1284;53.520;10.248;2023-12-20T10:56:05;99769.50;;;8.21;97.18
2549;BME280;1284;53.520;10.248;2023-12-20T10:58:33;99773.81;;;8.03;98.16
2549;BME280;1284;53.520;10.248;2023-12-20T11:01:01;99764.72;;;8.11;97.30
2549;BME280;1284;53.520;10.248;2023-12-20T11:03:32;99762.50;;;8.39;96.15
2549;BME280;1284;53.520;10.248;2023-12-20T11:06:05;99775.69;;;8.48;95.91
2549;BME280;1284;53.520;10.248;2023-12-20T11:08:42;99774.13;;;8.47;95.27
2549;BME280;1284;53.520;10.248;2023-12-20T11:14:00;99764.53;;;8.46;94.45
2549;BME280;1284;53.520;10.248;2023-12-20T11:16:26;99774.44;;;8.42;94.63
2549;BME280;1284;53.520;10.248;2023-12-20T11:18:51;99757.47;;;8.34;95.16
2549;BME280;1284;53.520;10.248;2023-12-20T11:21:17;99761.66;;;8.09;95.79
2549;BME280;1284;53.520;10.248;2023-12-20T11:23:43;99769.50;;;8.21;96.46
2549;BME280;1284;53.520;10.248;2023-12-20T11:26:08;99761.75;;;8.16;97.13
2549;BME280;1284;53.520;10.248;2023-12-20T11:28:34;99774.97;;;8.05;96.52
2549;BME280;1284;53.520;10.248;2023-12-20T11:31:01;99792.47;;;7.73;100.00
2549;BME280;1284;53.520;10.248;2023-12-20T11:33:36;99786.66;;;7.94;99.58
2549;BME280;1284;53.520;10.248;2023-12-20T11:36:02;99783.72;;;7.99;99.30
2549;BME280;1284;53.520;10.248;2023-12-20T11:38:36;99780.00;;;7.62;100.00
2549;BME280;1284;53.520;10.248;2023-12-20T11:41:05;99772.31;;;7.83;100.00
2549;BME280;1284;53.520;10.248;2023-12-20T11:43:35;99774.59;;;7.81;100.00
2549;BME280;1284;53.520;10.248;2023-12-20T11:46:08;99800.44;;;7.92;100.00
2549;BME280;1284;53.520;10.248;2023-12-20T11:48:36;99801.56;;;7.69;100.00
2549;BME280;1284;53.520;10.248;2023-12-20T11:51:02;99784.94;;;7.82;100.00
2549;BME280;1284;53.520;10.248;2023-12-20T11:53:29;99773.34;;;7.52;100.00
2549;BME280;1284;53.520;10.248;2023-12-20T11:55:56;99765.41;;;7.59;100.00
2549;BME280;1284;53.520;10.248;2023-12-20T11:58:21;99771.25;;;7.87;98.97
2549;BME280;1284;53.520;10.248;2023-12-20T12:00:49;99762.03;;;7.85;98.93
2549;BME280;1284;53.520;10.248;2023-12-20T12:03:15;99761.72;;;7.67;99.42
2549;BME280;1284;53.520;10.248;2023-12-20T12:05:40;99760.16;;;7.44;100.00
2549;BME280;1284;53.520;10.248;2023-12-20T12:08:06;99759.72;;;7.42;100.00
2549;BME280;1284;53.520;10.248;2023-12-20T12:10:33;99757.97;;;7.72;100.00
2549;BME280;1284;53.520;10.248;2023-12-20T12:12:58;99775.66;;;7.99;100.00
2549;BME280;1284;53.520;10.248;2023-12-20T12:15:24;99760.84;;;8.05;100.00
2549;BME280;1284;53.520;10.248;2023-12-20T12:17:54;99760.25;;;7.70;100.00
2549;BME280;1284;53.520;10.248;2023-12-20T12:20:20;99768.84;;;7.37;100.00
2549;BME280;1284;53.520;10.248;2023-12-20T12:22:46;99756.03;;;7.27;100.00
2549;BME280;1284;53.520;10.248;2023-12-20T12:25:16;99757.31;;;7.33;100.00
2549;BME280;1284;53.520;10.248;2023-12-20T12:27:42;99745.59;;;7.64;100.00
2549;BME280;1284;53.520;10.248;2023-12-20T12:30:08;99749.63;;;7.77;100.00
2549;BME280;1284;53.520;10.248;2023-12-20T12:32:35;99744.75;;;7.82;100.00
2549;BME280;1284;53.520;10.248;2023-12-20T12:35:03;99745.53;;;7.83;100.00
2549;BME280;1284;53.520;10.248;2023-12-20T12:37:30;99738.00;;;7.92;100.00
2549;BME280;1284;53.520;10.248;2023-12-20T12:39:55;99735.59;;;8.09;99.87
2549;BME280;1284;53.520;10.248;2023-12-20T12:42:21;99755.47;;;8.05;100.00
2549;BME280;1284;53.520;10.248;2023-12-20T12:44:50;99735.41;;;7.95;100.00
2549;BME280;1284;53.520;10.248;2023-12-20T12:47:16;99749.75;;;8.06;100.00
2549;BME280;1284;53.520;10.248;2023-12-20T12:49:41;99746.53;;;7.97;100.00
2549;BME280;1284;53.520;10.248;2023-12-20T12:52:07;99751.75;;;8.13;99.12
2549;BME280;1284;53.520;10.248;2023-12-20T12:54:32;99756.91;;;7.99;99.59
2549;BME280;1284;53.520;10.248;2023-12-20T12:56:58;99752.97;;;8.19;97.78
2549;BME280;1284;53.520;10.248;2023-12-20T12:59:23;99755.53;;;8.08;97.32
2549;BME280;1284;53.520;10.248;2023-12-20T13:01:49;99758.56;;;8.07;98.45
2549;BME280;1284;53.520;10.248;2023-12-20T13:04:14;99759.91;;;8.20;96.99
2549;BME280;1284;53.520;10.248;2023-12-20T13:06:39;99766.59;;;8.30;96.53
2549;BME280;1284;53.520;10.248;2023-12-20T13:09:07;99763.59;;;8.35;95.54
2549;BME280;1284;53.520;10.248;2023-12-20T13:11:34;99758.44;;;8.00;96.50
2549;BME280;1284;53.520;10.248;2023-12-20T13:14:00;99762.97;;;8.18;97.39